Startpagina
METAR-TAF:

METAR-TAF

Vliegvelden :

Pruniers

Romorantin, Frankrijk

breedte: 47-19N, lengte: 001-41E, hoogte: 85 m

Actueel weer

Dit bericht is 23 minuten geleden gemaakt, om 20:30 UTC
Wind 6 kt uit het zuidwesten
Temperatuur 11°C
Vochtigheid 94%
Druk 1030 hPa
Zicht: 4400 m
Geheel bewolkt op 600 ft
lichte motregen, nevel

METAR: LFYR 232030Z AUTO 23006KT 4400 -DZ BR OVC006 11/10 Q1030

Tijdstip: 21:53 (20:53 UTC)


TAF: ontbreekt

Waarnemingen en weersverwachtingen van meer dan 4000 vliegvelden (METAR en TAF).

De beschikbare stations zijn de gele en rode punten op de kaart.

Ga met uw muis naar het station om de naam te zien.

Klik dan om waarnemingen en weersverwachtingen te zien.

kaart wijzigen: klik op de groene knoppen met een zwart kruis om in te zoomen, op de groene knop met een streepje om uit te zoomen of op de groene pijlen voor aangrenzende kaarten.


METAR-TAF: